sensor_id;sensor_type;location;lat;lon;timestamp;temperature;humidity
48019;DHT22;33786;48.690;9.562;2023-07-29T00:01:23;16.00;99.90
48019;DHT22;33786;48.690;9.562;2023-07-29T00:03:50;15.90;99.90
48019;DHT22;33786;48.690;9.562;2023-07-29T00:06:17;15.80;99.90
48019;DHT22;33786;48.690;9.562;2023-07-29T00:08:44;15.80;99.90
48019;DHT22;33786;48.690;9.562;2023-07-29T00:11:10;15.70;99.90
48019;DHT22;33786;48.690;9.562;2023-07-29T00:13:37;15.70;99.90
48019;DHT22;33786;48.690;9.562;2023-07-29T00:16:04;15.70;99.90
48019;DHT22;33786;48.690;9.562;2023-07-29T00:18:31;15.70;99.90
48019;DHT22;33786;48.690;9.562;2023-07-29T00:20:58;15.60;99.90
48019;DHT22;33786;48.690;9.562;2023-07-29T00:23:25;15.60;99.90
48019;DHT22;33786;48.690;9.562;2023-07-29T00:25:52;15.60;99.90
48019;DHT22;33786;48.690;9.562;2023-07-29T00:28:18;15.60;99.90
48019;DHT22;33786;48.690;9.562;2023-07-29T00:30:49;15.60;99.90
48019;DHT22;33786;48.690;9.562;2023-07-29T00:33:16;15.60;99.90
48019;DHT22;33786;48.690;9.562;2023-07-29T00:35:42;15.60;99.90
48019;DHT22;33786;48.690;9.562;2023-07-29T00:38:09;15.60;99.90
48019;DHT22;33786;48.690;9.562;2023-07-29T00:40:36;15.60;99.90
48019;DHT22;33786;48.690;9.562;2023-07-29T00:43:03;15.70;99.90
48019;DHT22;33786;48.690;9.562;2023-07-29T00:45:30;15.70;99.90
48019;DHT22;33786;48.690;9.562;2023-07-29T00:47:58;15.70;99.90
48019;DHT22;33786;48.690;9.562;2023-07-29T00:50:25;15.80;99.90
48019;DHT22;33786;48.690;9.562;2023-07-29T00:52:54;15.80;99.90
48019;DHT22;33786;48.690;9.562;2023-07-29T00:55:21;15.80;99.90
48019;DHT22;33786;48.690;9.562;2023-07-29T00:57:48;15.80;99.90
48019;DHT22;33786;48.690;9.562;2023-07-29T01:00:16;15.80;99.90
48019;DHT22;33786;48.690;9.562;2023-07-29T01:02:43;15.80;99.90
48019;DHT22;33786;48.690;9.562;2023-07-29T01:05:11;15.90;99.90
48019;DHT22;33786;48.690;9.562;2023-07-29T01:10:10;16.00;99.90
48019;DHT22;33786;48.690;9.562;2023-07-29T01:12:54;16.00;99.90
48019;DHT22;33786;48.690;9.562;2023-07-29T01:15:24;16.00;99.90
48019;DHT22;33786;48.690;9.562;2023-07-29T01:17:55;16.00;99.90
48019;DHT22;33786;48.690;9.562;2023-07-29T01:20:23;16.10;99.90
48019;DHT22;33786;48.690;9.562;2023-07-29T01:22:51;16.10;99.90
48019;DHT22;33786;48.690;9.562;2023-07-29T01:25:18;16.10;99.90
48019;DHT22;33786;48.690;9.562;2023-07-29T01:27:45;16.00;99.90
48019;DHT22;33786;48.690;9.562;2023-07-29T01:30:12;16.10;99.90
48019;DHT22;33786;48.690;9.562;2023-07-29T01:35:21;16.10;99.90
48019;DHT22;33786;48.690;9.562;2023-07-29T01:37:55;16.10;99.90
48019;DHT22;33786;48.690;9.562;2023-07-29T01:40:22;16.10;99.90
48019;DHT22;33786;48.690;9.562;2023-07-29T01:42:50;16.20;99.90
48019;DHT22;33786;48.690;9.562;2023-07-29T01:45:17;16.20;99.90
48019;DHT22;33786;48.690;9.562;2023-07-29T01:47:44;16.20;99.90
48019;DHT22;33786;48.690;9.562;2023-07-29T01:50:11;16.20;99.90
48019;DHT22;33786;48.690;9.562;2023-07-29T01:52:38;16.20;99.90
48019;DHT22;33786;48.690;9.562;2023-07-29T01:55:05;16.30;99.90
48019;DHT22;33786;48.690;9.562;2023-07-29T01:57:32;16.30;99.90
48019;DHT22;33786;48.690;9.562;2023-07-29T01:59:59;16.30;99.90
48019;DHT22;33786;48.690;9.562;2023-07-29T02:02:25;16.40;99.90
48019;DHT22;33786;48.690;9.562;2023-07-29T02:04:52;16.40;99.90
48019;DHT22;33786;48.690;9.562;2023-07-29T02:07:19;16.30;99.90
48019;DHT22;33786;48.690;9.562;2023-07-29T02:09:46;16.30;99.90
48019;DHT22;33786;48.690;9.562;2023-07-29T02:12:13;16.40;99.90
48019;DHT22;33786;48.690;9.562;2023-07-29T02:14:40;16.40;99.90
48019;DHT22;33786;48.690;9.562;2023-07-29T02:17:06;16.50;99.90
48019;DHT22;33786;48.690;9.562;2023-07-29T02:19:34;16.50;99.90
48019;DHT22;33786;48.690;9.562;2023-07-29T02:22:00;16.50;99.90
48019;DHT22;33786;48.690;9.562;2023-07-29T02:24:27;16.50;99.90
48019;DHT22;33786;48.690;9.562;2023-07-29T02:26:54;16.60;99.90
48019;DHT22;33786;48.690;9.562;2023-07-29T02:29:21;16.60;99.90
48019;DHT22;33786;48.690;9.562;2023-07-29T02:31:48;16.60;99.90
48019;DHT22;33786;48.690;9.562;2023-07-29T02:34:14;16.50;99.90
48019;DHT22;33786;48.690;9.562;2023-07-29T02:36:41;16.50;99.90
48019;DHT22;33786;48.690;9.562;2023-07-29T02:39:08;16.50;99.90
48019;DHT22;33786;48.690;9.562;2023-07-29T02:41:35;16.50;99.90
48019;DHT22;33786;48.690;9.562;2023-07-29T02:44:02;16.40;99.90
48019;DHT22;33786;48.690;9.562;2023-07-29T02:46:29;16.40;99.90
48019;DHT22;33786;48.690;9.562;2023-07-29T02:48:56;16.40;99.90
48019;DHT22;33786;48.690;9.562;2023-07-29T02:51:23;16.40;99.90
48019;DHT22;33786;48.690;9.562;2023-07-29T02:53:49;16.40;99.90
48019;DHT22;33786;48.690;9.562;2023-07-29T02:56:16;16.40;99.90
48019;DHT22;33786;48.690;9.562;2023-07-29T02:58:43;16.40;99.90
48019;DHT22;33786;48.690;9.562;2023-07-29T03:01:11;16.40;99.90
48019;DHT22;33786;48.690;9.562;2023-07-29T03:03:38;16.40;99.90
48019;DHT22;33786;48.690;9.562;2023-07-29T03:06:06;16.40;99.90
48019;DHT22;33786;48.690;9.562;2023-07-29T03:08:33;16.30;99.90
48019;DHT22;33786;48.690;9.562;2023-07-29T03:11:07;16.30;99.90
48019;DHT22;33786;48.690;9.562;2023-07-29T03:13:34;16.30;99.90
48019;DHT22;33786;48.690;9.562;2023-07-29T03:16:04;16.30;99.90
48019;DHT22;33786;48.690;9.562;2023-07-29T03:18:31;16.30;99.90
48019;DHT22;33786;48.690;9.562;2023-07-29T03:20:58;16.30;99.90
48019;DHT22;33786;48.690;9.562;2023-07-29T03:23:24;16.30;99.90
48019;DHT22;33786;48.690;9.562;2023-07-29T03:25:51;16.30;99.90
48019;DHT22;33786;48.690;9.562;2023-07-29T03:28:32;16.30;99.90
48019;DHT22;33786;48.690;9.562;2023-07-29T03:30:59;16.30;99.90
48019;DHT22;33786;48.690;9.562;2023-07-29T03:33:26;16.40;99.90
48019;DHT22;33786;48.690;9.562;2023-07-29T03:35:53;16.40;99.90
48019;DHT22;33786;48.690;9.562;2023-07-29T03:38:20;16.40;99.90
48019;DHT22;33786;48.690;9.562;2023-07-29T03:40:47;16.40;99.90
48019;DHT22;33786;48.690;9.562;2023-07-29T03:43:13;16.40;99.90
48019;DHT22;33786;48.690;9.562;2023-07-29T03:45:40;16.40;99.90
48019;DHT22;33786;48.690;9.562;2023-07-29T03:48:07;16.40;99.90
48019;DHT22;33786;48.690;9.562;2023-07-29T03:50:35;16.40;99.90
48019;DHT22;33786;48.690;9.562;2023-07-29T03:53:02;16.40;99.90
48019;DHT22;33786;48.690;9.562;2023-07-29T03:55:29;16.50;99.90
48019;DHT22;33786;48.690;9.562;2023-07-29T03:57:56;16.50;99.90
48019;DHT22;33786;48.690;9.562;2023-07-29T04:00:24;16.50;99.90
48019;DHT22;33786;48.690;9.562;2023-07-29T04:02:50;16.60;99.90
48019;DHT22;33786;48.690;9.562;2023-07-29T04:05:17;16.50;99.90
48019;DHT22;33786;48.690;9.562;2023-07-29T04:07:44;16.60;99.90
48019;DHT22;33786;48.690;9.562;2023-07-29T04:10:11;16.70;99.90
48019;DHT22;33786;48.690;9.562;2023-07-29T04:12:38;16.70;99.90
48019;DHT22;33786;48.690;9.562;2023-07-29T04:15:05;16.80;99.90
48019;DHT22;33786;48.690;9.562;2023-07-29T04:17:32;16.80;99.90
48019;DHT22;33786;48.690;9.562;2023-07-29T04:19:59;16.90;99.90
48019;DHT22;33786;48.690;9.562;2023-07-29T04:22:25;16.90;99.90
48019;DHT22;33786;48.690;9.562;2023-07-29T04:24:52;16.90;99.90
48019;DHT22;33786;48.690;9.562;2023-07-29T04:27:20;16.70;99.90
48019;DHT22;33786;48.690;9.562;2023-07-29T04:29:47;16.90;99.90
48019;DHT22;33786;48.690;9.562;2023-07-29T04:32:13;17.00;99.90
48019;DHT22;33786;48.690;9.562;2023-07-29T04:34:40;17.00;99.90
48019;DHT22;33786;48.690;9.562;2023-07-29T04:37:07;17.00;99.90
48019;DHT22;33786;48.690;9.562;2023-07-29T04:39:33;17.00;99.90
48019;DHT22;33786;48.690;9.562;2023-07-29T04:42:00;17.10;99.90
48019;DHT22;33786;48.690;9.562;2023-07-29T04:44:27;17.10;99.90
48019;DHT22;33786;48.690;9.562;2023-07-29T04:46:54;17.10;99.90
48019;DHT22;33786;48.690;9.562;2023-07-29T04:49:20;17.20;99.90
48019;DHT22;33786;48.690;9.562;2023-07-29T04:51:47;17.40;99.90
48019;DHT22;33786;48.690;9.562;2023-07-29T04:54:14;17.30;99.90
48019;DHT22;33786;48.690;9.562;2023-07-29T04:56:41;17.40;99.90
48019;DHT22;33786;48.690;9.562;2023-07-29T04:59:08;17.40;99.90
48019;DHT22;33786;48.690;9.562;2023-07-29T05:01:35;17.50;99.90
48019;DHT22;33786;48.690;9.562;2023-07-29T05:04:02;17.50;99.90
48019;DHT22;33786;48.690;9.562;2023-07-29T05:06:28;17.60;99.90
48019;DHT22;33786;48.690;9.562;2023-07-29T05:08:57;17.50;99.90
48019;DHT22;33786;48.690;9.562;2023-07-29T05:11:23;17.60;99.90
48019;DHT22;33786;48.690;9.562;2023-07-29T05:13:51;17.70;99.90
48019;DHT22;33786;48.690;9.562;2023-07-29T05:16:18;17.70;99.90
48019;DHT22;33786;48.690;9.562;2023-07-29T05:18:45;17.60;99.90
48019;DHT22;33786;48.690;9.562;2023-07-29T05:21:12;17.60;99.90
48019;DHT22;33786;48.690;9.562;2023-07-29T05:23:40;17.60;99.90
48019;DHT22;33786;48.690;9.562;2023-07-29T05:26:07;17.60;99.90
48019;DHT22;33786;48.690;9.562;2023-07-29T05:28:34;17.70;99.90
48019;DHT22;33786;48.690;9.562;2023-07-29T05:31:01;17.70;99.90
48019;DHT22;33786;48.690;9.562;2023-07-29T05:33:28;17.70;99.90
48019;DHT22;33786;48.690;9.562;2023-07-29T05:35:55;17.80;99.90
48019;DHT22;33786;48.690;9.562;2023-07-29T05:38:22;17.80;99.90
48019;DHT22;33786;48.690;9.562;2023-07-29T05:40:49;17.80;99.90
48019;DHT22;33786;48.690;9.562;2023-07-29T05:43:16;17.80;99.90
48019;DHT22;33786;48.690;9.562;2023-07-29T05:45:43;17.80;99.90
48019;DHT22;33786;48.690;9.562;2023-07-29T05:48:09;17.80;99.90
48019;DHT22;33786;48.690;9.562;2023-07-29T05:50:40;17.80;99.90
48019;DHT22;33786;48.690;9.562;2023-07-29T05:53:06;17.70;99.90
48019;DHT22;33786;48.690;9.562;2023-07-29T05:55:33;17.70;99.90
48019;DHT22;33786;48.690;9.562;2023-07-29T05:58:00;17.70;99.90
48019;DHT22;33786;48.690;9.562;2023-07-29T06:00:26;17.70;99.90
48019;DHT22;33786;48.690;9.562;2023-07-29T06:02:53;17.70;99.90
48019;DHT22;33786;48.690;9.562;2023-07-29T06:05:20;17.70;99.90
48019;DHT22;33786;48.690;9.562;2023-07-29T06:07:47;17.70;99.90
48019;DHT22;33786;48.690;9.562;2023-07-29T06:10:14;17.80;99.90
48019;DHT22;33786;48.690;9.562;2023-07-29T06:12:45;17.80;99.90
48019;DHT22;33786;48.690;9.562;2023-07-29T06:15:12;18.00;99.90
48019;DHT22;33786;48.690;9.562;2023-07-29T06:17:39;18.20;99.90
48019;DHT22;33786;48.690;9.562;2023-07-29T06:20:05;18.40;99.90
48019;DHT22;33786;48.690;9.562;2023-07-29T06:22:32;18.70;99.90
48019;DHT22;33786;48.690;9.562;2023-07-29T06:24:59;18.90;99.90
48019;DHT22;33786;48.690;9.562;2023-07-29T06:27:26;19.00;99.90
48019;DHT22;33786;48.690;9.562;2023-07-29T06:29:53;19.20;99.90
48019;DHT22;33786;48.690;9.562;2023-07-29T06:32:19;19.50;99.90
48019;DHT22;33786;48.690;9.562;2023-07-29T06:34:46;20.40;99.90
48019;DHT22;33786;48.690;9.562;2023-07-29T06:37:13;22.00;99.90
48019;DHT22;33786;48.690;9.562;2023-07-29T06:39:40;22.70;99.90
48019;DHT22;33786;48.690;9.562;2023-07-29T06:42:07;22.90;99.90
48019;DHT22;33786;48.690;9.562;2023-07-29T06:44:33;22.80;99.90
48019;DHT22;33786;48.690;9.562;2023-07-29T06:47:00;22.60;99.90
48019;DHT22;33786;48.690;9.562;2023-07-29T06:49:27;22.50;99.90
48019;DHT22;33786;48.690;9.562;2023-07-29T06:51:53;22.40;99.90
48019;DHT22;33786;48.690;9.562;2023-07-29T06:54:23;22.40;99.90
48019;DHT22;33786;48.690;9.562;2023-07-29T06:56:50;23.00;99.90
48019;DHT22;33786;48.690;9.562;2023-07-29T06:59:17;23.10;99.90
48019;DHT22;33786;48.690;9.562;2023-07-29T07:01:44;22.90;99.90
48019;DHT22;33786;48.690;9.562;2023-07-29T07:04:11;22.60;99.90
48019;DHT22;33786;48.690;9.562;2023-07-29T07:06:37;22.30;99.90
48019;DHT22;33786;48.690;9.562;2023-07-29T07:09:04;21.80;99.90
48019;DHT22;33786;48.690;9.562;2023-07-29T07:11:31;21.50;99.90
48019;DHT22;33786;48.690;9.562;2023-07-29T07:13:58;21.30;99.90
48019;DHT22;33786;48.690;9.562;2023-07-29T07:16:24;21.50;99.90
48019;DHT22;33786;48.690;9.562;2023-07-29T07:18:51;21.00;99.90
48019;DHT22;33786;48.690;9.562;2023-07-29T07:21:18;20.70;99.90
48019;DHT22;33786;48.690;9.562;2023-07-29T07:23:45;20.40;99.90
48019;DHT22;33786;48.690;9.562;2023-07-29T07:26:12;20.30;99.90
48019;DHT22;33786;48.690;9.562;2023-07-29T07:28:39;19.80;99.90
48019;DHT22;33786;48.690;9.562;2023-07-29T07:31:06;19.60;99.90
48019;DHT22;33786;48.690;9.562;2023-07-29T07:33:32;19.10;99.90
48019;DHT22;33786;48.690;9.562;2023-07-29T07:35:59;19.00;99.90
48019;DHT22;33786;48.690;9.562;2023-07-29T07:38:26;18.70;99.90
48019;DHT22;33786;48.690;9.562;2023-07-29T07:40:54;18.50;99.90
48019;DHT22;33786;48.690;9.562;2023-07-29T07:43:22;18.40;99.90
48019;DHT22;33786;48.690;9.562;2023-07-29T07:45:49;18.30;99.90
48019;DHT22;33786;48.690;9.562;2023-07-29T07:48:16;18.30;99.90
48019;DHT22;33786;48.690;9.562;2023-07-29T07:50:43;18.30;99.90
48019;DHT22;33786;48.690;9.562;2023-07-29T07:53:10;18.40;99.90
48019;DHT22;33786;48.690;9.562;2023-07-29T07:55:37;18.50;99.90
48019;DHT22;33786;48.690;9.562;2023-07-29T07:58:04;18.50;99.90
48019;DHT22;33786;48.690;9.562;2023-07-29T08:00:31;18.60;99.90
48019;DHT22;33786;48.690;9.562;2023-07-29T08:02:58;18.80;99.90
48019;DHT22;33786;48.690;9.562;2023-07-29T08:05:24;19.10;99.90
48019;DHT22;33786;48.690;9.562;2023-07-29T08:07:51;19.40;99.90
48019;DHT22;33786;48.690;9.562;2023-07-29T08:10:18;19.70;99.90
48019;DHT22;33786;48.690;9.562;2023-07-29T08:12:45;20.00;99.90
48019;DHT22;33786;48.690;9.562;2023-07-29T08:15:12;20.20;99.90
48019;DHT22;33786;48.690;9.562;2023-07-29T08:17:39;20.50;99.90
48019;DHT22;33786;48.690;9.562;2023-07-29T08:20:06;20.70;99.90
48019;DHT22;33786;48.690;9.562;2023-07-29T08:22:33;20.90;99.90
48019;DHT22;33786;48.690;9.562;2023-07-29T08:25:00;20.90;99.90
48019;DHT22;33786;48.690;9.562;2023-07-29T08:27:26;20.80;99.90
48019;DHT22;33786;48.690;9.562;2023-07-29T08:29:53;20.90;99.90
48019;DHT22;33786;48.690;9.562;2023-07-29T08:32:20;21.20;99.90
48019;DHT22;33786;48.690;9.562;2023-07-29T08:34:47;21.50;99.90
48019;DHT22;33786;48.690;9.562;2023-07-29T08:37:14;21.60;99.90
48019;DHT22;33786;48.690;9.562;2023-07-29T08:39:41;21.70;99.90
48019;DHT22;33786;48.690;9.562;2023-07-29T08:42:08;21.90;99.90
48019;DHT22;33786;48.690;9.562;2023-07-29T08:44:42;22.10;99.90
48019;DHT22;33786;48.690;9.562;2023-07-29T08:47:09;22.30;99.90
48019;DHT22;33786;48.690;9.562;2023-07-29T08:49:36;22.50;99.90
48019;DHT22;33786;48.690;9.562;2023-07-29T08:52:04;22.60;99.90
48019;DHT22;33786;48.690;9.562;2023-07-29T08:54:31;22.60;99.90
48019;DHT22;33786;48.690;9.562;2023-07-29T08:56:58;22.50;99.90
48019;DHT22;33786;48.690;9.562;2023-07-29T08:59:25;22.50;99.90
48019;DHT22;33786;48.690;9.562;2023-07-29T09:01:53;22.40;99.90
48019;DHT22;33786;48.690;9.562;2023-07-29T09:04:23;22.50;99.90
48019;DHT22;33786;48.690;9.562;2023-07-29T09:06:51;22.20;99.90
48019;DHT22;33786;48.690;9.562;2023-07-29T09:09:18;22.40;99.90
48019;DHT22;33786;48.690;9.562;2023-07-29T09:11:45;22.60;99.90
48019;DHT22;33786;48.690;9.562;2023-07-29T09:14:12;22.90;99.90
48019;DHT22;33786;48.690;9.562;2023-07-29T09:16:40;23.00;99.90
48019;DHT22;33786;48.690;9.562;2023-07-29T09:19:07;23.10;99.90
48019;DHT22;33786;48.690;9.562;2023-07-29T09:21:33;23.20;99.90
48019;DHT22;33786;48.690;9.562;2023-07-29T09:24:03;23.00;99.90
48019;DHT22;33786;48.690;9.562;2023-07-29T09:26:34;23.10;99.90
48019;DHT22;33786;48.690;9.562;2023-07-29T09:29:02;23.10;99.90
48019;DHT22;33786;48.690;9.562;2023-07-29T09:31:29;23.30;99.90
48019;DHT22;33786;48.690;9.562;2023-07-29T09:34:00;23.30;99.90
48019;DHT22;33786;48.690;9.562;2023-07-29T09:36:27;23.40;99.90
48019;DHT22;33786;48.690;9.562;2023-07-29T09:38:56;23.60;99.90
48019;DHT22;33786;48.690;9.562;2023-07-29T09:41:24;24.20;99.90
48019;DHT22;33786;48.690;9.562;2023-07-29T09:43:55;24.70;99.90
48019;DHT22;33786;48.690;9.562;2023-07-29T09:46:32;25.30;99.90
48019;DHT22;33786;48.690;9.562;2023-07-29T09:48:59;25.50;99.90
48019;DHT22;33786;48.690;9.562;2023-07-29T09:51:26;26.20;99.90
48019;DHT22;33786;48.690;9.562;2023-07-29T09:53:53;26.50;99.90
48019;DHT22;33786;48.690;9.562;2023-07-29T09:56:23;26.60;99.90
48019;DHT22;33786;48.690;9.562;2023-07-29T09:58:51;26.30;99.90
48019;DHT22;33786;48.690;9.562;2023-07-29T10:01:18;26.50;99.90
48019;DHT22;33786;48.690;9.562;2023-07-29T10:03:45;26.60;99.90
48019;DHT22;33786;48.690;9.562;2023-07-29T10:06:12;26.20;99.90
48019;DHT22;33786;48.690;9.562;2023-07-29T10:08:40;26.20;99.90
48019;DHT22;33786;48.690;9.562;2023-07-29T10:11:09;26.00;99.90
48019;DHT22;33786;48.690;9.562;2023-07-29T10:13:36;26.50;99.90
48019;DHT22;33786;48.690;9.562;2023-07-29T10:16:04;26.60;99.90
48019;DHT22;33786;48.690;9.562;2023-07-29T10:18:32;26.50;99.90
48019;DHT22;33786;48.690;9.562;2023-07-29T10:20:59;26.60;99.90
48019;DHT22;33786;48.690;9.562;2023-07-29T10:23:37;26.70;99.90
48019;DHT22;33786;48.690;9.562;2023-07-29T10:26:05;26.50;99.90
48019;DHT22;33786;48.690;9.562;2023-07-29T10:28:32;26.50;99.90
48019;DHT22;33786;48.690;9.562;2023-07-29T10:31:01;26.60;99.90
48019;DHT22;33786;48.690;9.562;2023-07-29T10:33:29;26.70;99.90
48019;DHT22;33786;48.690;9.562;2023-07-29T10:35:58;26.60;99.90
48019;DHT22;33786;48.690;9.562;2023-07-29T10:38:25;27.10;99.90
48019;DHT22;33786;48.690;9.562;2023-07-29T10:40:52;27.20;99.90
48019;DHT22;33786;48.690;9.562;2023-07-29T10:43:38;27.00;99.90
48019;DHT22;33786;48.690;9.562;2023-07-29T10:46:18;26.90;99.90
48019;DHT22;33786;48.690;9.562;2023-07-29T10:48:55;26.50;99.90
48019;DHT22;33786;48.690;9.562;2023-07-29T10:51:26;26.70;99.90
48019;DHT22;33786;48.690;9.562;2023-07-29T10:53:54;26.50;99.90
48019;DHT22;33786;48.690;9.562;2023-07-29T10:56:24;26.50;99.90
48019;DHT22;33786;48.690;9.562;2023-07-29T10:58:52;26.60;99.90
48019;DHT22;33786;48.690;9.562;2023-07-29T11:01:26;26.80;99.90
48019;DHT22;33786;48.690;9.562;2023-07-29T11:17:32;28.30;99.60
48019;DHT22;33786;48.690;9.562;2023-07-29T11:20:02;28.20;99.10
48019;DHT22;33786;48.690;9.562;2023-07-29T11:22:29;28.50;99.20
48019;DHT22;33786;48.690;9.562;2023-07-29T11:24:59;28.40;96.50
48019;DHT22;33786;48.690;9.562;2023-07-29T11:27:26;28.30;96.20
48019;DHT22;33786;48.690;9.562;2023-07-29T11:29:57;28.10;96.60
48019;DHT22;33786;48.690;9.562;2023-07-29T11:32:24;27.80;95.60
48019;DHT22;33786;48.690;9.562;2023-07-29T11:34:51;27.60;95.20
48019;DHT22;33786;48.690;9.562;2023-07-29T11:37:18;27.10;95.50
48019;DHT22;33786;48.690;9.562;2023-07-29T11:39:47;26.90;96.60
48019;DHT22;33786;48.690;9.562;2023-07-29T11:42:14;27.40;97.60
48019;DHT22;33786;48.690;9.562;2023-07-29T11:44:41;27.50;98.20
48019;DHT22;33786;48.690;9.562;2023-07-29T11:47:08;27.80;98.00
48019;DHT22;33786;48.690;9.562;2023-07-29T11:49:35;27.90;98.30
48019;DHT22;33786;48.690;9.562;2023-07-29T11:52:03;28.10;97.80
48019;DHT22;33786;48.690;9.562;2023-07-29T11:54:29;28.00;97.30
48019;DHT22;33786;48.690;9.562;2023-07-29T11:56:56;27.80;97.90
48019;DHT22;33786;48.690;9.562;2023-07-29T11:59:23;28.20;97.40
48019;DHT22;33786;48.690;9.562;2023-07-29T12:01:50;28.00;97.00
48019;DHT22;33786;48.690;9.562;2023-07-29T12:04:16;27.50;97.00
48019;DHT22;33786;48.690;9.562;2023-07-29T12:06:43;27.20;98.00
48019;DHT22;33786;48.690;9.562;2023-07-29T12:09:10;27.60;97.70
48019;DHT22;33786;48.690;9.562;2023-07-29T12:11:39;28.00;97.60
48019;DHT22;33786;48.690;9.562;2023-07-29T12:14:09;28.40;97.30
48019;DHT22;33786;48.690;9.562;2023-07-29T12:16:42;28.90;96.50
48019;DHT22;33786;48.690;9.562;2023-07-29T12:19:12;29.20;95.40
48019;DHT22;33786;48.690;9.562;2023-07-29T12:21:42;28.60;95.60
48019;DHT22;33786;48.690;9.562;2023-07-29T12:24:09;28.00;95.60
48019;DHT22;33786;48.690;9.562;2023-07-29T12:26:36;28.10;96.00
48019;DHT22;33786;48.690;9.562;2023-07-29T12:29:11;27.80;96.60
48019;DHT22;33786;48.690;9.562;2023-07-29T12:31:37;27.80;97.30
48019;DHT22;33786;48.690;9.562;2023-07-29T12:34:04;28.10;97.00
48019;DHT22;33786;48.690;9.562;2023-07-29T12:36:44;28.30;96.50
48019;DHT22;33786;48.690;9.562;2023-07-29T12:39:18;28.30;96.80
48019;DHT22;33786;48.690;9.562;2023-07-29T12:41:45;28.50;96.30
48019;DHT22;33786;48.690;9.562;2023-07-29T12:44:13;28.20;96.00
48019;DHT22;33786;48.690;9.562;2023-07-29T12:46:42;28.40;95.20
48019;DHT22;33786;48.690;9.562;2023-07-29T12:49:09;28.30;94.60
48019;DHT22;33786;48.690;9.562;2023-07-29T12:51:36;28.30;94.40
48019;DHT22;33786;48.690;9.562;2023-07-29T12:54:04;28.00;94.20
48019;DHT22;33786;48.690;9.562;2023-07-29T12:56:32;28.00;94.70
48019;DHT22;33786;48.690;9.562;2023-07-29T12:58:59;27.90;94.40
48019;DHT22;33786;48.690;9.562;2023-07-29T13:01:27;27.80;94.00
48019;DHT22;33786;48.690;9.562;2023-07-29T13:03:54;27.70;94.10
48019;DHT22;33786;48.690;9.562;2023-07-29T13:06:22;27.50;93.70
48019;DHT22;33786;48.690;9.562;2023-07-29T13:08:49;27.20;93.70
48019;DHT22;33786;48.690;9.562;2023-07-29T13:11:16;26.80;93.10
48019;DHT22;33786;48.690;9.562;2023-07-29T13:13:43;26.70;94.40
48019;DHT22;33786;48.690;9.562;2023-07-29T13:16:10;26.80;93.90
48019;DHT22;33786;48.690;9.562;2023-07-29T13:18:37;26.70;94.20
48019;DHT22;33786;48.690;9.562;2023-07-29T13:21:04;26.80;93.80
48019;DHT22;33786;48.690;9.562;2023-07-29T13:23:31;27.20;94.20
48019;DHT22;33786;48.690;9.562;2023-07-29T13:25:58;27.10;92.70
48019;DHT22;33786;48.690;9.562;2023-07-29T13:28:25;27.50;92.60
48019;DHT22;33786;48.690;9.562;2023-07-29T13:30:52;27.60;92.20
48019;DHT22;33786;48.690;9.562;2023-07-29T13:33:19;27.60;91.40
48019;DHT22;33786;48.690;9.562;2023-07-29T13:35:46;27.40;91.50
48019;DHT22;33786;48.690;9.562;2023-07-29T13:38:13;27.30;91.70
48019;DHT22;33786;48.690;9.562;2023-07-29T13:40:39;27.20;92.60
48019;DHT22;33786;48.690;9.562;2023-07-29T13:43:06;27.10;92.40
48019;DHT22;33786;48.690;9.562;2023-07-29T13:45:33;27.30;92.40
48019;DHT22;33786;48.690;9.562;2023-07-29T13:48:00;27.20;92.20
48019;DHT22;33786;48.690;9.562;2023-07-29T13:50:27;27.40;92.70
48019;DHT22;33786;48.690;9.562;2023-07-29T13:52:53;27.80;92.20
48019;DHT22;33786;48.690;9.562;2023-07-29T13:55:20;28.00;92.20
48019;DHT22;33786;48.690;9.562;2023-07-29T13:57:47;28.10;91.40
48019;DHT22;33786;48.690;9.562;2023-07-29T14:00:14;28.10;91.60
48019;DHT22;33786;48.690;9.562;2023-07-29T14:02:41;27.90;90.70
48019;DHT22;33786;48.690;9.562;2023-07-29T14:05:08;27.60;90.60
48019;DHT22;33786;48.690;9.562;2023-07-29T14:07:35;27.40;91.10
48019;DHT22;33786;48.690;9.562;2023-07-29T14:10:02;27.30;91.30
48019;DHT22;33786;48.690;9.562;2023-07-29T14:12:28;27.30;91.60
48019;DHT22;33786;48.690;9.562;2023-07-29T14:14:55;27.40;91.00
48019;DHT22;33786;48.690;9.562;2023-07-29T14:17:22;27.50;90.70
48019;DHT22;33786;48.690;9.562;2023-07-29T14:19:48;27.60;90.40
48019;DHT22;33786;48.690;9.562;2023-07-29T14:22:15;27.80;90.40
48019;DHT22;33786;48.690;9.562;2023-07-29T14:24:42;27.70;90.80
48019;DHT22;33786;48.690;9.562;2023-07-29T14:27:08;27.40;90.60
48019;DHT22;33786;48.690;9.562;2023-07-29T14:29:35;27.20;91.10
48019;DHT22;33786;48.690;9.562;2023-07-29T14:32:02;27.10;89.80
48019;DHT22;33786;48.690;9.562;2023-07-29T14:34:29;26.90;88.40
48019;DHT22;33786;48.690;9.562;2023-07-29T14:36:55;27.00;89.50
48019;DHT22;33786;48.690;9.562;2023-07-29T14:39:22;27.10;89.80
48019;DHT22;33786;48.690;9.562;2023-07-29T14:41:49;27.10;89.10
48019;DHT22;33786;48.690;9.562;2023-07-29T14:44:16;26.90;88.90
48019;DHT22;33786;48.690;9.562;2023-07-29T14:46:42;27.10;88.60
48019;DHT22;33786;48.690;9.562;2023-07-29T14:49:09;27.10;88.00
48019;DHT22;33786;48.690;9.562;2023-07-29T14:51:36;27.20;88.30
48019;DHT22;33786;48.690;9.562;2023-07-29T14:54:03;27.40;88.90
48019;DHT22;33786;48.690;9.562;2023-07-29T14:56:30;27.50;88.80
48019;DHT22;33786;48.690;9.562;2023-07-29T14:58:57;27.30;87.80
48019;DHT22;33786;48.690;9.562;2023-07-29T15:01:24;27.30;88.60
48019;DHT22;33786;48.690;9.562;2023-07-29T15:03:51;26.90;88.00
48019;DHT22;33786;48.690;9.562;2023-07-29T15:06:18;26.60;88.60
48019;DHT22;33786;48.690;9.562;2023-07-29T15:08:44;26.30;89.40
48019;DHT22;33786;48.690;9.562;2023-07-29T15:11:11;26.30;89.80
48019;DHT22;33786;48.690;9.562;2023-07-29T15:13:38;26.60;90.10
48019;DHT22;33786;48.690;9.562;2023-07-29T15:16:05;26.60;89.40
48019;DHT22;33786;48.690;9.562;2023-07-29T15:18:32;26.50;89.50
48019;DHT22;33786;48.690;9.562;2023-07-29T15:21:00;26.70;89.30
48019;DHT22;33786;48.690;9.562;2023-07-29T15:23:28;26.60;89.40
48019;DHT22;33786;48.690;9.562;2023-07-29T15:25:55;26.70;89.20
48019;DHT22;33786;48.690;9.562;2023-07-29T15:28:23;26.50;89.40
48019;DHT22;33786;48.690;9.562;2023-07-29T15:30:51;26.50;89.50
48019;DHT22;33786;48.690;9.562;2023-07-29T15:33:18;26.50;90.60
48019;DHT22;33786;48.690;9.562;2023-07-29T15:35:44;26.30;90.40
48019;DHT22;33786;48.690;9.562;2023-07-29T15:38:12;26.30;90.90
48019;DHT22;33786;48.690;9.562;2023-07-29T15:40:39;26.20;90.50
48019;DHT22;33786;48.690;9.562;2023-07-29T15:43:06;26.00;91.10
48019;DHT22;33786;48.690;9.562;2023-07-29T15:45:33;26.00;91.60
48019;DHT22;33786;48.690;9.562;2023-07-29T15:48:00;26.20;91.00
48019;DHT22;33786;48.690;9.562;2023-07-29T15:50:27;26.30;91.10